sensor_id;sensor_type;location;lat;lon;timestamp;P1;durP1;ratioP1;P2;durP2;ratioP2
13230;SDS011;6681;53.254;10.398;2023-04-07T00:01:34;12.83;;;9.60;;
13230;SDS011;6681;53.254;10.398;2023-04-07T00:04:00;16.43;;;10.00;;
13230;SDS011;6681;53.254;10.398;2023-04-07T00:06:25;15.00;;;10.77;;
13230;SDS011;6681;53.254;10.398;2023-04-07T00:08:51;14.30;;;10.03;;
13230;SDS011;6681;53.254;10.398;2023-04-07T00:11:17;10.43;;;9.07;;
13230;SDS011;6681;53.254;10.398;2023-04-07T00:13:43;11.33;;;9.77;;
13230;SDS011;6681;53.254;10.398;2023-04-07T00:16:08;14.37;;;10.00;;
13230;SDS011;6681;53.254;10.398;2023-04-07T00:18:34;14.47;;;10.40;;
13230;SDS011;6681;53.254;10.398;2023-04-07T00:21:00;13.47;;;9.20;;
13230;SDS011;6681;53.254;10.398;2023-04-07T00:23:25;14.43;;;9.73;;
13230;SDS011;6681;53.254;10.398;2023-04-07T00:25:51;13.70;;;9.60;;
13230;SDS011;6681;53.254;10.398;2023-04-07T00:28:16;12.17;;;9.80;;
13230;SDS011;6681;53.254;10.398;2023-04-07T00:30:42;12.57;;;9.10;;
13230;SDS011;6681;53.254;10.398;2023-04-07T00:33:08;10.80;;;9.40;;
13230;SDS011;6681;53.254;10.398;2023-04-07T00:35:33;10.70;;;8.93;;
13230;SDS011;6681;53.254;10.398;2023-04-07T00:37:59;11.13;;;10.03;;
13230;SDS011;6681;53.254;10.398;2023-04-07T00:40:25;12.63;;;8.73;;
13230;SDS011;6681;53.254;10.398;2023-04-07T00:42:51;11.40;;;9.30;;
13230;SDS011;6681;53.254;10.398;2023-04-07T00:45:16;10.60;;;9.23;;
13230;SDS011;6681;53.254;10.398;2023-04-07T00:47:42;12.50;;;9.87;;
13230;SDS011;6681;53.254;10.398;2023-04-07T00:50:08;12.23;;;9.10;;
13230;SDS011;6681;53.254;10.398;2023-04-07T00:52:34;11.10;;;10.00;;
13230;SDS011;6681;53.254;10.398;2023-04-07T00:55:00;12.33;;;9.60;;
13230;SDS011;6681;53.254;10.398;2023-04-07T00:57:26;11.83;;;9.20;;
13230;SDS011;6681;53.254;10.398;2023-04-07T00:59:52;10.93;;;9.37;;
13230;SDS011;6681;53.254;10.398;2023-04-07T01:02:22;11.47;;;9.33;;
13230;SDS011;6681;53.254;10.398;2023-04-07T01:10:36;10.00;;;9.00;;
13230;SDS011;6681;53.254;10.398;2023-04-07T01:13:14;10.47;;;9.37;;
13230;SDS011;6681;53.254;10.398;2023-04-07T01:15:51;9.70;;;8.70;;
13230;SDS011;6681;53.254;10.398;2023-04-07T01:18:21;11.27;;;10.13;;
13230;SDS011;6681;53.254;10.398;2023-04-07T01:20:52;11.97;;;8.50;;
13230;SDS011;6681;53.254;10.398;2023-04-07T01:24:02;14.43;;;8.63;;
13230;SDS011;6681;53.254;10.398;2023-04-07T01:26:46;11.47;;;8.53;;
13230;SDS011;6681;53.254;10.398;2023-04-07T01:32:01;11.00;;;9.27;;
13230;SDS011;6681;53.254;10.398;2023-04-07T01:34:29;10.83;;;9.70;;
13230;SDS011;6681;53.254;10.398;2023-04-07T01:36:56;10.27;;;8.67;;
13230;SDS011;6681;53.254;10.398;2023-04-07T01:39:25;13.97;;;9.10;;
13230;SDS011;6681;53.254;10.398;2023-04-07T01:41:51;11.87;;;8.53;;
13230;SDS011;6681;53.254;10.398;2023-04-07T01:44:18;8.70;;;7.80;;
13230;SDS011;6681;53.254;10.398;2023-04-07T01:46:45;10.83;;;8.00;;
13230;SDS011;6681;53.254;10.398;2023-04-07T01:49:11;9.30;;;8.30;;
13230;SDS011;6681;53.254;10.398;2023-04-07T01:51:39;11.63;;;9.03;;
13230;SDS011;6681;53.254;10.398;2023-04-07T01:54:05;10.33;;;8.00;;
13230;SDS011;6681;53.254;10.398;2023-04-07T01:56:32;8.83;;;7.80;;
13230;SDS011;6681;53.254;10.398;2023-04-07T01:58:58;10.20;;;7.87;;
13230;SDS011;6681;53.254;10.398;2023-04-07T02:01:23;12.73;;;9.27;;
13230;SDS011;6681;53.254;10.398;2023-04-07T02:07:22;7.97;;;7.17;;
13230;SDS011;6681;53.254;10.398;2023-04-07T02:09:33;12.33;;;8.27;;
13230;SDS011;6681;53.254;10.398;2023-04-07T02:12:02;10.13;;;9.00;;
13230;SDS011;6681;53.254;10.398;2023-04-07T02:14:30;11.33;;;8.87;;
13230;SDS011;6681;53.254;10.398;2023-04-07T02:16:57;9.63;;;8.43;;
13230;SDS011;6681;53.254;10.398;2023-04-07T02:19:25;8.83;;;7.97;;
13230;SDS011;6681;53.254;10.398;2023-04-07T02:21:51;9.00;;;7.13;;
13230;SDS011;6681;53.254;10.398;2023-04-07T02:24:18;8.87;;;7.57;;
13230;SDS011;6681;53.254;10.398;2023-04-07T02:26:45;9.07;;;7.73;;
13230;SDS011;6681;53.254;10.398;2023-04-07T02:29:11;7.60;;;6.57;;
13230;SDS011;6681;53.254;10.398;2023-04-07T02:31:37;9.40;;;7.83;;
13230;SDS011;6681;53.254;10.398;2023-04-07T02:34:03;8.87;;;7.07;;
13230;SDS011;6681;53.254;10.398;2023-04-07T02:36:29;8.37;;;6.77;;
13230;SDS011;6681;53.254;10.398;2023-04-07T02:38:55;13.30;;;8.53;;
13230;SDS011;6681;53.254;10.398;2023-04-07T02:41:21;10.57;;;7.70;;
13230;SDS011;6681;53.254;10.398;2023-04-07T02:43:46;10.90;;;7.90;;
13230;SDS011;6681;53.254;10.398;2023-04-07T02:46:12;13.63;;;8.60;;
13230;SDS011;6681;53.254;10.398;2023-04-07T02:48:38;8.63;;;7.73;;
13230;SDS011;6681;53.254;10.398;2023-04-07T02:51:03;9.07;;;8.17;;
13230;SDS011;6681;53.254;10.398;2023-04-07T02:53:29;8.33;;;7.37;;
13230;SDS011;6681;53.254;10.398;2023-04-07T02:55:55;9.90;;;7.13;;
13230;SDS011;6681;53.254;10.398;2023-04-07T02:58:21;8.07;;;7.23;;
13230;SDS011;6681;53.254;10.398;2023-04-07T03:00:47;8.53;;;6.60;;
13230;SDS011;6681;53.254;10.398;2023-04-07T03:03:13;8.07;;;7.37;;
13230;SDS011;6681;53.254;10.398;2023-04-07T03:05:38;8.47;;;7.60;;
13230;SDS011;6681;53.254;10.398;2023-04-07T03:08:04;11.03;;;8.27;;
13230;SDS011;6681;53.254;10.398;2023-04-07T03:10:30;10.00;;;7.10;;
13230;SDS011;6681;53.254;10.398;2023-04-07T03:12:56;7.60;;;6.63;;
13230;SDS011;6681;53.254;10.398;2023-04-07T03:15:22;9.07;;;7.63;;
13230;SDS011;6681;53.254;10.398;2023-04-07T03:17:47;9.43;;;7.20;;
13230;SDS011;6681;53.254;10.398;2023-04-07T03:20:13;9.40;;;7.13;;
13230;SDS011;6681;53.254;10.398;2023-04-07T03:22:39;12.83;;;7.80;;
13230;SDS011;6681;53.254;10.398;2023-04-07T03:25:05;7.33;;;6.63;;
13230;SDS011;6681;53.254;10.398;2023-04-07T03:27:31;9.00;;;7.30;;
13230;SDS011;6681;53.254;10.398;2023-04-07T03:29:56;9.40;;;7.03;;
13230;SDS011;6681;53.254;10.398;2023-04-07T03:32:22;11.60;;;7.67;;
13230;SDS011;6681;53.254;10.398;2023-04-07T03:34:48;11.13;;;7.80;;
13230;SDS011;6681;53.254;10.398;2023-04-07T03:37:13;18.47;;;7.13;;
13230;SDS011;6681;53.254;10.398;2023-04-07T03:39:39;13.53;;;8.20;;
13230;SDS011;6681;53.254;10.398;2023-04-07T03:42:05;11.30;;;8.53;;
13230;SDS011;6681;53.254;10.398;2023-04-07T03:44:31;8.70;;;7.73;;
13230;SDS011;6681;53.254;10.398;2023-04-07T03:46:57;8.30;;;7.23;;
13230;SDS011;6681;53.254;10.398;2023-04-07T03:49:23;8.77;;;7.00;;
13230;SDS011;6681;53.254;10.398;2023-04-07T03:51:48;9.43;;;7.37;;
13230;SDS011;6681;53.254;10.398;2023-04-07T03:54:14;8.47;;;7.53;;
13230;SDS011;6681;53.254;10.398;2023-04-07T03:56:43;8.00;;;6.77;;
13230;SDS011;6681;53.254;10.398;2023-04-07T03:59:08;9.90;;;7.83;;
13230;SDS011;6681;53.254;10.398;2023-04-07T04:01:34;9.73;;;7.10;;
13230;SDS011;6681;53.254;10.398;2023-04-07T04:04:00;8.73;;;7.47;;
13230;SDS011;6681;53.254;10.398;2023-04-07T04:06:26;10.67;;;6.67;;
13230;SDS011;6681;53.254;10.398;2023-04-07T04:08:52;8.37;;;7.57;;
13230;SDS011;6681;53.254;10.398;2023-04-07T04:11:17;8.70;;;7.30;;
13230;SDS011;6681;53.254;10.398;2023-04-07T04:13:43;9.63;;;6.87;;
13230;SDS011;6681;53.254;10.398;2023-04-07T04:16:09;7.90;;;6.60;;
13230;SDS011;6681;53.254;10.398;2023-04-07T04:18:34;8.00;;;6.87;;
13230;SDS011;6681;53.254;10.398;2023-04-07T04:21:00;9.10;;;7.50;;
13230;SDS011;6681;53.254;10.398;2023-04-07T04:23:26;11.60;;;7.37;;
13230;SDS011;6681;53.254;10.398;2023-04-07T04:25:51;9.37;;;7.73;;
13230;SDS011;6681;53.254;10.398;2023-04-07T04:28:17;8.50;;;7.60;;
13230;SDS011;6681;53.254;10.398;2023-04-07T04:30:42;7.53;;;6.70;;
13230;SDS011;6681;53.254;10.398;2023-04-07T04:33:08;9.60;;;8.00;;
13230;SDS011;6681;53.254;10.398;2023-04-07T04:35:34;10.13;;;7.13;;
13230;SDS011;6681;53.254;10.398;2023-04-07T04:37:59;8.07;;;7.37;;
13230;SDS011;6681;53.254;10.398;2023-04-07T04:40:25;11.83;;;7.50;;
13230;SDS011;6681;53.254;10.398;2023-04-07T04:42:51;9.23;;;7.47;;
13230;SDS011;6681;53.254;10.398;2023-04-07T04:45:16;11.37;;;7.50;;
13230;SDS011;6681;53.254;10.398;2023-04-07T04:47:42;9.13;;;7.77;;
13230;SDS011;6681;53.254;10.398;2023-04-07T04:50:08;8.20;;;7.40;;
13230;SDS011;6681;53.254;10.398;2023-04-07T04:52:34;23.53;;;13.37;;
13230;SDS011;6681;53.254;10.398;2023-04-07T04:55:00;18.10;;;11.43;;
13230;SDS011;6681;53.254;10.398;2023-04-07T04:57:26;39.27;;;25.00;;
13230;SDS011;6681;53.254;10.398;2023-04-07T04:59:52;41.50;;;22.90;;
13230;SDS011;6681;53.254;10.398;2023-04-07T05:02:17;20.30;;;13.97;;
13230;SDS011;6681;53.254;10.398;2023-04-07T05:04:43;8.63;;;7.73;;
13230;SDS011;6681;53.254;10.398;2023-04-07T05:07:08;11.63;;;9.43;;
13230;SDS011;6681;53.254;10.398;2023-04-07T05:09:34;11.17;;;9.03;;
13230;SDS011;6681;53.254;10.398;2023-04-07T05:12:00;11.50;;;8.67;;
13230;SDS011;6681;53.254;10.398;2023-04-07T05:14:26;9.80;;;7.20;;
13230;SDS011;6681;53.254;10.398;2023-04-07T05:16:52;8.90;;;8.00;;
13230;SDS011;6681;53.254;10.398;2023-04-07T05:19:18;8.23;;;7.30;;
13230;SDS011;6681;53.254;10.398;2023-04-07T05:21:44;9.57;;;8.57;;
13230;SDS011;6681;53.254;10.398;2023-04-07T05:24:10;11.73;;;7.20;;
13230;SDS011;6681;53.254;10.398;2023-04-07T05:26:36;8.40;;;7.10;;
13230;SDS011;6681;53.254;10.398;2023-04-07T05:29:01;9.27;;;7.57;;
13230;SDS011;6681;53.254;10.398;2023-04-07T05:31:27;7.97;;;7.17;;
13230;SDS011;6681;53.254;10.398;2023-04-07T05:33:52;8.77;;;7.70;;
13230;SDS011;6681;53.254;10.398;2023-04-07T05:36:18;9.80;;;7.73;;
13230;SDS011;6681;53.254;10.398;2023-04-07T05:38:43;9.97;;;6.73;;
13230;SDS011;6681;53.254;10.398;2023-04-07T05:41:09;8.20;;;7.07;;
13230;SDS011;6681;53.254;10.398;2023-04-07T05:43:35;10.47;;;7.37;;
13230;SDS011;6681;53.254;10.398;2023-04-07T05:46:00;9.17;;;7.27;;
13230;SDS011;6681;53.254;10.398;2023-04-07T05:48:26;9.33;;;6.53;;
13230;SDS011;6681;53.254;10.398;2023-04-07T05:50:52;9.17;;;6.80;;
13230;SDS011;6681;53.254;10.398;2023-04-07T05:53:17;6.73;;;5.97;;
13230;SDS011;6681;53.254;10.398;2023-04-07T05:55:43;8.10;;;7.30;;
13230;SDS011;6681;53.254;10.398;2023-04-07T05:58:09;14.83;;;7.53;;
13230;SDS011;6681;53.254;10.398;2023-04-07T06:00:35;7.03;;;6.33;;
13230;SDS011;6681;53.254;10.398;2023-04-07T06:03:00;8.27;;;6.67;;
13230;SDS011;6681;53.254;10.398;2023-04-07T06:05:27;15.67;;;7.20;;
13230;SDS011;6681;53.254;10.398;2023-04-07T06:07:53;9.30;;;7.03;;
13230;SDS011;6681;53.254;10.398;2023-04-07T06:10:18;9.27;;;6.33;;
13230;SDS011;6681;53.254;10.398;2023-04-07T06:12:44;11.10;;;7.90;;
13230;SDS011;6681;53.254;10.398;2023-04-07T06:15:10;8.17;;;6.70;;
13230;SDS011;6681;53.254;10.398;2023-04-07T06:17:36;11.47;;;7.77;;
13230;SDS011;6681;53.254;10.398;2023-04-07T06:20:01;11.37;;;7.07;;
13230;SDS011;6681;53.254;10.398;2023-04-07T06:22:27;10.40;;;6.87;;
13230;SDS011;6681;53.254;10.398;2023-04-07T06:24:53;7.53;;;6.83;;
13230;SDS011;6681;53.254;10.398;2023-04-07T06:27:19;9.47;;;6.57;;
13230;SDS011;6681;53.254;10.398;2023-04-07T06:29:45;9.30;;;7.13;;
13230;SDS011;6681;53.254;10.398;2023-04-07T06:32:11;7.97;;;7.13;;
13230;SDS011;6681;53.254;10.398;2023-04-07T06:34:37;8.47;;;6.50;;
13230;SDS011;6681;53.254;10.398;2023-04-07T06:37:03;7.60;;;6.13;;
13230;SDS011;6681;53.254;10.398;2023-04-07T06:39:29;8.73;;;6.80;;
13230;SDS011;6681;53.254;10.398;2023-04-07T06:41:55;9.40;;;6.83;;
13230;SDS011;6681;53.254;10.398;2023-04-07T06:44:21;11.60;;;6.57;;
13230;SDS011;6681;53.254;10.398;2023-04-07T06:46:47;9.87;;;7.40;;
13230;SDS011;6681;53.254;10.398;2023-04-07T06:49:17;10.67;;;7.67;;
13230;SDS011;6681;53.254;10.398;2023-04-07T06:51:43;9.60;;;7.20;;
13230;SDS011;6681;53.254;10.398;2023-04-07T06:54:09;9.27;;;6.43;;
13230;SDS011;6681;53.254;10.398;2023-04-07T06:56:38;7.67;;;6.03;;
13230;SDS011;6681;53.254;10.398;2023-04-07T06:59:04;6.97;;;5.63;;
13230;SDS011;6681;53.254;10.398;2023-04-07T07:01:29;10.47;;;7.97;;
13230;SDS011;6681;53.254;10.398;2023-04-07T07:03:55;9.73;;;7.83;;
13230;SDS011;6681;53.254;10.398;2023-04-07T07:06:20;5.97;;;5.37;;
13230;SDS011;6681;53.254;10.398;2023-04-07T07:08:46;11.93;;;9.17;;
13230;SDS011;6681;53.254;10.398;2023-04-07T07:11:12;8.97;;;6.97;;
13230;SDS011;6681;53.254;10.398;2023-04-07T07:13:37;11.30;;;8.43;;
13230;SDS011;6681;53.254;10.398;2023-04-07T07:16:03;8.33;;;7.27;;
13230;SDS011;6681;53.254;10.398;2023-04-07T07:18:29;10.93;;;7.37;;
13230;SDS011;6681;53.254;10.398;2023-04-07T07:20:55;8.33;;;6.83;;
13230;SDS011;6681;53.254;10.398;2023-04-07T07:23:20;7.87;;;7.07;;
13230;SDS011;6681;53.254;10.398;2023-04-07T07:25:46;9.53;;;7.10;;
13230;SDS011;6681;53.254;10.398;2023-04-07T07:28:11;10.80;;;5.90;;
13230;SDS011;6681;53.254;10.398;2023-04-07T07:30:38;7.97;;;7.17;;
13230;SDS011;6681;53.254;10.398;2023-04-07T07:33:05;8.83;;;6.53;;
13230;SDS011;6681;53.254;10.398;2023-04-07T07:35:31;7.60;;;6.07;;
13230;SDS011;6681;53.254;10.398;2023-04-07T07:37:56;9.83;;;6.27;;
13230;SDS011;6681;53.254;10.398;2023-04-07T07:40:22;7.03;;;6.13;;
13230;SDS011;6681;53.254;10.398;2023-04-07T07:42:48;8.87;;;5.73;;
13230;SDS011;6681;53.254;10.398;2023-04-07T07:45:13;6.10;;;5.50;;
13230;SDS011;6681;53.254;10.398;2023-04-07T07:47:40;8.73;;;5.77;;
13230;SDS011;6681;53.254;10.398;2023-04-07T07:50:05;7.93;;;5.00;;
13230;SDS011;6681;53.254;10.398;2023-04-07T07:52:31;6.53;;;5.20;;
13230;SDS011;6681;53.254;10.398;2023-04-07T07:54:57;7.10;;;5.70;;
13230;SDS011;6681;53.254;10.398;2023-04-07T07:57:23;7.37;;;5.60;;
13230;SDS011;6681;53.254;10.398;2023-04-07T07:59:48;5.93;;;4.90;;
13230;SDS011;6681;53.254;10.398;2023-04-07T08:02:14;7.93;;;6.60;;
13230;SDS011;6681;53.254;10.398;2023-04-07T08:04:40;7.27;;;5.83;;
13230;SDS011;6681;53.254;10.398;2023-04-07T08:07:05;9.30;;;6.47;;
13230;SDS011;6681;53.254;10.398;2023-04-07T08:09:31;7.60;;;6.47;;
13230;SDS011;6681;53.254;10.398;2023-04-07T08:11:57;6.93;;;5.93;;
13230;SDS011;6681;53.254;10.398;2023-04-07T08:14:23;9.63;;;5.50;;
13230;SDS011;6681;53.254;10.398;2023-04-07T08:16:49;7.40;;;5.23;;
13230;SDS011;6681;53.254;10.398;2023-04-07T08:19:14;6.87;;;5.17;;
13230;SDS011;6681;53.254;10.398;2023-04-07T08:21:40;8.97;;;5.80;;
13230;SDS011;6681;53.254;10.398;2023-04-07T08:24:06;9.63;;;6.03;;
13230;SDS011;6681;53.254;10.398;2023-04-07T08:26:32;7.03;;;5.20;;
13230;SDS011;6681;53.254;10.398;2023-04-07T08:28:58;10.60;;;5.70;;
13230;SDS011;6681;53.254;10.398;2023-04-07T08:31:24;6.37;;;5.23;;
13230;SDS011;6681;53.254;10.398;2023-04-07T08:33:50;8.43;;;5.40;;
13230;SDS011;6681;53.254;10.398;2023-04-07T08:36:21;8.10;;;5.87;;
13230;SDS011;6681;53.254;10.398;2023-04-07T08:38:47;6.47;;;5.20;;
13230;SDS011;6681;53.254;10.398;2023-04-07T08:41:15;8.03;;;6.00;;
13230;SDS011;6681;53.254;10.398;2023-04-07T08:43:44;8.83;;;5.67;;
13230;SDS011;6681;53.254;10.398;2023-04-07T08:46:13;8.07;;;5.77;;
13230;SDS011;6681;53.254;10.398;2023-04-07T08:48:40;10.20;;;5.57;;
13230;SDS011;6681;53.254;10.398;2023-04-07T08:51:08;7.00;;;5.03;;
13230;SDS011;6681;53.254;10.398;2023-04-07T08:53:47;5.47;;;4.97;;
13230;SDS011;6681;53.254;10.398;2023-04-07T08:56:15;5.60;;;4.67;;
13230;SDS011;6681;53.254;10.398;2023-04-07T08:58:41;8.07;;;5.03;;
13230;SDS011;6681;53.254;10.398;2023-04-07T09:01:08;8.53;;;5.07;;
13230;SDS011;6681;53.254;10.398;2023-04-07T09:03:34;5.47;;;4.90;;
13230;SDS011;6681;53.254;10.398;2023-04-07T09:06:00;8.30;;;5.27;;
13230;SDS011;6681;53.254;10.398;2023-04-07T09:08:26;7.93;;;5.37;;
13230;SDS011;6681;53.254;10.398;2023-04-07T09:10:53;7.67;;;5.20;;
13230;SDS011;6681;53.254;10.398;2023-04-07T09:13:20;7.13;;;4.93;;
13230;SDS011;6681;53.254;10.398;2023-04-07T09:15:45;7.17;;;5.17;;
13230;SDS011;6681;53.254;10.398;2023-04-07T09:18:11;8.00;;;6.13;;
13230;SDS011;6681;53.254;10.398;2023-04-07T09:20:57;7.13;;;5.43;;
13230;SDS011;6681;53.254;10.398;2023-04-07T09:23:32;5.27;;;4.23;;
13230;SDS011;6681;53.254;10.398;2023-04-07T09:26:18;12.70;;;6.07;;
13230;SDS011;6681;53.254;10.398;2023-04-07T09:28:46;7.73;;;5.07;;
13230;SDS011;6681;53.254;10.398;2023-04-07T09:31:14;6.63;;;4.20;;
13230;SDS011;6681;53.254;10.398;2023-04-07T09:33:40;6.97;;;4.13;;
13230;SDS011;6681;53.254;10.398;2023-04-07T09:36:07;5.50;;;4.20;;
13230;SDS011;6681;53.254;10.398;2023-04-07T09:38:33;8.17;;;5.20;;
13230;SDS011;6681;53.254;10.398;2023-04-07T09:43:37;7.13;;;5.30;;
13230;SDS011;6681;53.254;10.398;2023-04-07T09:46:15;10.67;;;5.93;;
13230;SDS011;6681;53.254;10.398;2023-04-07T09:48:43;4.67;;;4.17;;
13230;SDS011;6681;53.254;10.398;2023-04-07T09:51:11;5.77;;;4.43;;
13230;SDS011;6681;53.254;10.398;2023-04-07T09:53:49;6.23;;;5.00;;
13230;SDS011;6681;53.254;10.398;2023-04-07T09:56:17;7.67;;;4.80;;
13230;SDS011;6681;53.254;10.398;2023-04-07T09:58:45;6.43;;;5.83;;
13230;SDS011;6681;53.254;10.398;2023-04-07T10:01:11;7.13;;;5.67;;
13230;SDS011;6681;53.254;10.398;2023-04-07T10:03:38;6.20;;;4.47;;
13230;SDS011;6681;53.254;10.398;2023-04-07T10:06:05;6.17;;;4.50;;
13230;SDS011;6681;53.254;10.398;2023-04-07T10:08:32;7.33;;;5.40;;
13230;SDS011;6681;53.254;10.398;2023-04-07T10:11:00;6.83;;;5.30;;
13230;SDS011;6681;53.254;10.398;2023-04-07T10:13:28;5.73;;;3.97;;
13230;SDS011;6681;53.254;10.398;2023-04-07T10:15:55;6.30;;;4.73;;
13230;SDS011;6681;53.254;10.398;2023-04-07T10:18:21;7.53;;;5.13;;
13230;SDS011;6681;53.254;10.398;2023-04-07T10:20:52;6.53;;;5.90;;
13230;SDS011;6681;53.254;10.398;2023-04-07T10:23:21;5.03;;;4.00;;
13230;SDS011;6681;53.254;10.398;2023-04-07T10:25:51;9.67;;;5.23;;
13230;SDS011;6681;53.254;10.398;2023-04-07T10:28:20;6.07;;;5.27;;
13230;SDS011;6681;53.254;10.398;2023-04-07T10:30:48;4.77;;;4.33;;
13230;SDS011;6681;53.254;10.398;2023-04-07T10:33:14;12.57;;;6.20;;
13230;SDS011;6681;53.254;10.398;2023-04-07T10:38:29;8.43;;;5.90;;
13230;SDS011;6681;53.254;10.398;2023-04-07T10:40:55;7.37;;;5.60;;
13230;SDS011;6681;53.254;10.398;2023-04-07T10:43:54;7.17;;;5.57;;
13230;SDS011;6681;53.254;10.398;2023-04-07T10:46:13;7.40;;;4.87;;
13230;SDS011;6681;53.254;10.398;2023-04-07T10:48:39;5.67;;;5.07;;
13230;SDS011;6681;53.254;10.398;2023-04-07T10:53:30;5.63;;;4.77;;
13230;SDS011;6681;53.254;10.398;2023-04-07T10:55:56;6.00;;;4.67;;
13230;SDS011;6681;53.254;10.398;2023-04-07T10:58:23;5.80;;;4.90;;
13230;SDS011;6681;53.254;10.398;2023-04-07T11:03:55;9.87;;;6.50;;
13230;SDS011;6681;53.254;10.398;2023-04-07T11:06:21;7.60;;;5.90;;
13230;SDS011;6681;53.254;10.398;2023-04-07T11:08:48;6.63;;;4.83;;
13230;SDS011;6681;53.254;10.398;2023-04-07T11:11:15;5.43;;;4.97;;
13230;SDS011;6681;53.254;10.398;2023-04-07T11:13:49;4.80;;;4.17;;
13230;SDS011;6681;53.254;10.398;2023-04-07T11:16:18;6.27;;;4.67;;
13230;SDS011;6681;53.254;10.398;2023-04-07T11:18:52;5.63;;;5.13;;
13230;SDS011;6681;53.254;10.398;2023-04-07T11:21:21;5.10;;;4.37;;
13230;SDS011;6681;53.254;10.398;2023-04-07T11:23:47;6.60;;;4.73;;
13230;SDS011;6681;53.254;10.398;2023-04-07T11:26:13;4.63;;;4.00;;
13230;SDS011;6681;53.254;10.398;2023-04-07T11:28:52;5.53;;;4.10;;
13230;SDS011;6681;53.254;10.398;2023-04-07T11:33:59;6.40;;;5.30;;
13230;SDS011;6681;53.254;10.398;2023-04-07T11:36:33;5.27;;;3.53;;
13230;SDS011;6681;53.254;10.398;2023-04-07T11:39:02;7.53;;;4.90;;
13230;SDS011;6681;53.254;10.398;2023-04-07T11:41:28;4.70;;;3.83;;
13230;SDS011;6681;53.254;10.398;2023-04-07T11:44:03;4.50;;;3.93;;
13230;SDS011;6681;53.254;10.398;2023-04-07T11:46:30;5.43;;;4.20;;
13230;SDS011;6681;53.254;10.398;2023-04-07T11:49:06;3.97;;;3.40;;
13230;SDS011;6681;53.254;10.398;2023-04-07T11:51:41;8.53;;;3.90;;
13230;SDS011;6681;53.254;10.398;2023-04-07T11:54:08;4.83;;;3.47;;
13230;SDS011;6681;53.254;10.398;2023-04-07T11:56:41;4.90;;;3.73;;
13230;SDS011;6681;53.254;10.398;2023-04-07T11:59:15;5.37;;;3.93;;
13230;SDS011;6681;53.254;10.398;2023-04-07T12:01:44;4.93;;;3.97;;
13230;SDS011;6681;53.254;10.398;2023-04-07T12:04:11;4.47;;;3.67;;
13230;SDS011;6681;53.254;10.398;2023-04-07T12:06:41;5.83;;;3.90;;
13230;SDS011;6681;53.254;10.398;2023-04-07T12:09:08;4.13;;;3.73;;
13230;SDS011;6681;53.254;10.398;2023-04-07T12:11:49;3.47;;;3.17;;
13230;SDS011;6681;53.254;10.398;2023-04-07T12:14:15;5.07;;;4.07;;
13230;SDS011;6681;53.254;10.398;2023-04-07T12:16:41;5.20;;;3.23;;
13230;SDS011;6681;53.254;10.398;2023-04-07T12:19:06;3.83;;;3.53;;
13230;SDS011;6681;53.254;10.398;2023-04-07T12:21:32;5.60;;;4.63;;
13230;SDS011;6681;53.254;10.398;2023-04-07T12:23:58;4.77;;;3.60;;
13230;SDS011;6681;53.254;10.398;2023-04-07T12:26:23;6.00;;;3.60;;
13230;SDS011;6681;53.254;10.398;2023-04-07T12:28:49;4.60;;;3.90;;
13230;SDS011;6681;53.254;10.398;2023-04-07T12:31:15;5.47;;;3.57;;
13230;SDS011;6681;53.254;10.398;2023-04-07T12:33:41;5.07;;;3.07;;
13230;SDS011;6681;53.254;10.398;2023-04-07T12:36:06;3.93;;;3.53;;
13230;SDS011;6681;53.254;10.398;2023-04-07T12:38:32;5.40;;;3.60;;
13230;SDS011;6681;53.254;10.398;2023-04-07T12:40:57;3.80;;;2.70;;
13230;SDS011;6681;53.254;10.398;2023-04-07T12:43:27;4.70;;;3.03;;
13230;SDS011;6681;53.254;10.398;2023-04-07T12:45:54;3.77;;;3.20;;
13230;SDS011;6681;53.254;10.398;2023-04-07T12:48:20;2.90;;;2.50;;
13230;SDS011;6681;53.254;10.398;2023-04-07T12:50:45;4.27;;;2.87;;
13230;SDS011;6681;53.254;10.398;2023-04-07T12:53:11;4.23;;;3.00;;
13230;SDS011;6681;53.254;10.398;2023-04-07T12:55:37;3.70;;;2.77;;
13230;SDS011;6681;53.254;10.398;2023-04-07T12:58:03;4.67;;;2.97;;
13230;SDS011;6681;53.254;10.398;2023-04-07T13:00:28;5.37;;;2.53;;
13230;SDS011;6681;53.254;10.398;2023-04-07T13:02:55;4.30;;;3.33;;
13230;SDS011;6681;53.254;10.398;2023-04-07T13:05:21;4.80;;;2.93;;
13230;SDS011;6681;53.254;10.398;2023-04-07T13:07:48;7.33;;;3.40;;
13230;SDS011;6681;53.254;10.398;2023-04-07T13:10:13;3.87;;;3.47;;
13230;SDS011;6681;53.254;10.398;2023-04-07T13:12:39;3.03;;;2.40;;
13230;SDS011;6681;53.254;10.398;2023-04-07T13:15:06;2.83;;;2.63;;
13230;SDS011;6681;53.254;10.398;2023-04-07T13:17:32;2.90;;;2.63;;
13230;SDS011;6681;53.254;10.398;2023-04-07T13:20:00;3.90;;;3.43;;
13230;SDS011;6681;53.254;10.398;2023-04-07T13:22:27;5.87;;;3.53;;
13230;SDS011;6681;53.254;10.398;2023-04-07T13:24:53;3.33;;;3.03;;
13230;SDS011;6681;53.254;10.398;2023-04-07T13:27:19;5.30;;;2.47;;
13230;SDS011;6681;53.254;10.398;2023-04-07T13:29:45;3.97;;;2.87;;
13230;SDS011;6681;53.254;10.398;2023-04-07T13:32:11;3.43;;;2.40;;
13230;SDS011;6681;53.254;10.398;2023-04-07T13:34:37;3.83;;;3.07;;
13230;SDS011;6681;53.254;10.398;2023-04-07T13:37:03;5.20;;;3.17;;
13230;SDS011;6681;53.254;10.398;2023-04-07T13:39:30;3.27;;;2.50;;
13230;SDS011;6681;53.254;10.398;2023-04-07T13:41:57;4.50;;;2.00;;
13230;SDS011;6681;53.254;10.398;2023-04-07T13:44:23;5.90;;;2.40;;
13230;SDS011;6681;53.254;10.398;2023-04-07T13:46:50;2.33;;;1.97;;
13230;SDS011;6681;53.254;10.398;2023-04-07T13:49:16;3.73;;;1.80;;
13230;SDS011;6681;53.254;10.398;2023-04-07T13:51:42;2.33;;;1.60;;
13230;SDS011;6681;53.254;10.398;2023-04-07T13:54:07;3.33;;;1.70;;
13230;SDS011;6681;53.254;10.398;2023-04-07T13:56:33;2.00;;;1.57;;
13230;SDS011;6681;53.254;10.398;2023-04-07T13:59:04;2.20;;;1.40;;
13230;SDS011;6681;53.254;10.398;2023-04-07T14:01:30;3.10;;;2.30;;
13230;SDS011;6681;53.254;10.398;2023-04-07T14:03:57;4.90;;;1.87;;
13230;SDS011;6681;53.254;10.398;2023-04-07T14:06:22;2.10;;;1.37;;
13230;SDS011;6681;53.254;10.398;2023-04-07T14:08:48;1.50;;;1.10;;
13230;SDS011;6681;53.254;10.398;2023-04-07T14:11:15;1.47;;;1.20;;
13230;SDS011;6681;53.254;10.398;2023-04-07T14:13:45;1.67;;;1.50;;
13230;SDS011;6681;53.254;10.398;2023-04-07T14:16:11;1.53;;;1.43;;
13230;SDS011;6681;53.254;10.398;2023-04-07T14:18:37;1.60;;;1.20;;
13230;SDS011;6681;53.254;10.398;2023-04-07T14:21:03;0.87;;;0.80;;
13230;SDS011;6681;53.254;10.398;2023-04-07T14:23:29;1.37;;;1.17;;
13230;SDS011;6681;53.254;10.398;2023-04-07T14:25:58;2.77;;;2.00;;
13230;SDS011;6681;53.254;10.398;2023-04-07T14:28:25;2.43;;;1.27;;
13230;SDS011;6681;53.254;10.398;2023-04-07T14:30:52;2.00;;;1.90;;
13230;SDS011;6681;53.254;10.398;2023-04-07T14:33:18;1.73;;;1.63;;
13230;SDS011;6681;53.254;10.398;2023-04-07T14:35:45;2.10;;;1.90;;
13230;SDS011;6681;53.254;10.398;2023-04-07T14:38:10;2.00;;;1.67;;
13230;SDS011;6681;53.254;10.398;2023-04-07T14:40:36;3.60;;;1.60;;
13230;SDS011;6681;53.254;10.398;2023-04-07T14:43:02;2.23;;;1.83;;
13230;SDS011;6681;53.254;10.398;2023-04-07T14:45:28;3.20;;;2.17;;
13230;SDS011;6681;53.254;10.398;2023-04-07T14:47:54;2.30;;;1.30;;
13230;SDS011;6681;53.254;10.398;2023-04-07T14:50:20;7.27;;;3.00;;
13230;SDS011;6681;53.254;10.398;2023-04-07T14:52:45;1.93;;;1.83;;
13230;SDS011;6681;53.254;10.398;2023-04-07T14:55:11;3.10;;;2.30;;
13230;SDS011;6681;53.254;10.398;2023-04-07T14:57:37;2.90;;;2.00;;
13230;SDS011;6681;53.254;10.398;2023-04-07T15:00:03;4.37;;;2.10;;
13230;SDS011;6681;53.254;10.398;2023-04-07T15:02:31;1.80;;;1.70;;
13230;SDS011;6681;53.254;10.398;2023-04-07T15:04:57;3.10;;;1.63;;
13230;SDS011;6681;53.254;10.398;2023-04-07T15:07:23;1.63;;;1.53;;